Time;durP1;ratioP1;P1;durP2;ratioP2;P2;SDS_P1;SDS_P2;PMS_P1;PMS_P2;Temp;Humidity;BMP_temperature;BMP_pressure;BME280_temperature;BME280_humidity;BME280_pressure;Samples;Min_cycle;Max_cycle;Signal;HPM_P1;HPM_P2
2023/01/03 00:00:51;;;;;;;0.70;0.70;;;;;;;;;;5084258;28;20221;-71
2023/01/03 00:03:18;;;;;;;1.02;0.70;;;;;;;;;;5084123;28;20196;-71
2023/01/03 00:05:44;;;;;;;0.88;0.88;;;;;;;;;;5084343;28;20197;-71
2023/01/03 00:08:11;;;;;;;0.70;0.70;;;;;;;;;;5084021;28;20242;-71
2023/01/03 00:10:39;;;;;;;0.80;0.80;;;;;;;;;;5084165;28;20193;-71
2023/01/03 00:13:04;;;;;;;0.80;0.80;;;;;;;;;;5084162;28;20203;-71
2023/01/03 00:15:33;;;;;;;0.80;0.80;;;;;;;;;;5084055;28;20265;-71
2023/01/03 00:17:59;;;;;;;1.25;0.90;;;;;;;;;;5083740;28;20428;-71
2023/01/03 00:20:26;;;;;;;0.90;0.90;;;;;;;;;;5083822;28;20231;-71
2023/01/03 00:22:52;;;;;;;1.10;1.10;;;;;;;;;;5083774;28;20208;-71
2023/01/03 00:25:18;;;;;;;2.30;0.90;;;;;;;;;;5083866;28;20200;-71
2023/01/03 00:27:46;;;;;;;2.05;1.05;;;;;;;;;;5083723;28;20220;-71
2023/01/03 00:30:13;;;;;;;0.88;0.88;;;;;;;;;;5083358;28;20234;-71
2023/01/03 00:32:39;;;;;;;0.98;0.98;;;;;;;;;;5083520;28;20200;-71
2023/01/03 00:35:06;;;;;;;2.40;1.17;;;;;;;;;;5083654;28;20219;-71
2023/01/03 00:37:32;;;;;;;1.08;1.05;;;;;;;;;;5083751;28;20212;-71
2023/01/03 00:39:58;;;;;;;0.93;0.93;;;;;;;;;;5083214;28;20310;-71
2023/01/03 00:42:24;;;;;;;1.27;0.90;;;;;;;;;;5083420;28;20196;-71
2023/01/03 00:44:52;;;;;;;0.90;0.90;;;;;;;;;;5083347;28;20196;-71
2023/01/03 00:47:18;;;;;;;0.90;0.90;;;;;;;;;;5083232;28;20203;-72
2023/01/03 00:49:45;;;;;;;0.85;0.85;;;;;;;;;;5082905;28;20197;-71
2023/01/03 00:52:11;;;;;;;1.20;1.20;;;;;;;;;;5083428;28;20200;-71
2023/01/03 00:54:37;;;;;;;1.02;1.02;;;;;;;;;;5083251;28;20372;-71
2023/01/03 00:57:03;;;;;;;1.75;1.20;;;;;;;;;;5083243;28;20219;-71
2023/01/03 00:59:30;;;;;;;1.95;1.25;;;;;;;;;;5082759;28;20449;-71
2023/01/03 01:01:57;;;;;;;1.52;1.45;;;;;;;;;;5082228;28;20196;-71
2023/01/03 01:04:25;;;;;;;1.30;1.20;;;;;;;;;;5083141;28;20200;-71
2023/01/03 01:06:52;;;;;;;1.00;1.00;;;;;;;;;;5083070;28;20507;-71
2023/01/03 01:09:19;;;;;;;1.40;1.30;;;;;;;;;;5082563;28;20210;-71
2023/01/03 01:11:46;;;;;;;1.42;1.42;;;;;;;;;;5082815;28;20203;-71
2023/01/03 01:14:21;;;;;;;1.20;1.20;;;;;;;;;;5082798;28;20196;-71
2023/01/03 01:16:49;;;;;;;1.75;1.17;;;;;;;;;;5082854;28;20196;-71
2023/01/03 01:19:16;;;;;;;1.17;1.17;;;;;;;;;;5082322;28;20203;-71
2023/01/03 01:21:43;;;;;;;1.20;1.10;;;;;;;;;;5082626;28;20205;-71
2023/01/03 01:24:10;;;;;;;1.70;1.17;;;;;;;;;;5082655;28;20242;-71
2023/01/03 01:26:36;;;;;;;1.17;1.08;;;;;;;;;;5082547;28;20499;-71
2023/01/03 01:29:02;;;;;;;1.02;1.02;;;;;;;;;;5082093;28;20478;-71
2023/01/03 01:31:29;;;;;;;0.95;0.95;;;;;;;;;;5082589;28;20390;-71
2023/01/03 01:33:55;;;;;;;0.80;0.80;;;;;;;;;;5082338;28;20200;-71
2023/01/03 01:36:24;;;;;;;2.47;0.90;;;;;;;;;;5082578;28;20208;-71
2023/01/03 01:38:53;;;;;;;0.90;0.90;;;;;;;;;;5082108;28;20196;-71
2023/01/03 01:44:36;;;;;;;1.05;0.93;;;;;;;;;;5082231;28;20220;-71
2023/01/03 01:46:50;;;;;;;1.83;0.77;;;;;;;;;;5082098;28;20195;-71
2023/01/03 01:49:18;;;;;;;0.60;0.60;;;;;;;;;;5082388;28;20204;-71
2023/01/03 01:51:46;;;;;;;1.42;0.80;;;;;;;;;;5082148;28;20208;-71
2023/01/03 01:54:12;;;;;;;0.63;0.63;;;;;;;;;;5082057;28;20196;-71
2023/01/03 01:56:40;;;;;;;1.25;0.70;;;;;;;;;;5082145;28;20203;-71
2023/01/03 01:59:07;;;;;;;0.88;0.70;;;;;;;;;;5082040;28;20537;-71
2023/01/03 02:01:34;;;;;;;0.63;0.63;;;;;;;;;;5081928;28;20267;-71
2023/01/03 02:04:03;;;;;;;0.70;0.60;;;;;;;;;;5081811;28;20271;-71
2023/01/03 02:06:30;;;;;;;1.02;0.90;;;;;;;;;;5081654;28;20212;-69
2023/01/03 02:08:58;;;;;;;1.00;0.98;;;;;;;;;;5081935;28;20196;-70
2023/01/03 02:11:27;;;;;;;1.10;0.90;;;;;;;;;;5081941;28;20199;-70
2023/01/03 02:13:56;;;;;;;0.80;0.80;;;;;;;;;;5081821;28;20203;-72
2023/01/03 02:16:29;;;;;;;0.73;0.73;;;;;;;;;;5081790;28;20263;-72
2023/01/03 02:19:02;;;;;;;0.70;0.70;;;;;;;;;;5081569;28;20196;-71
2023/01/03 02:21:42;;;;;;;0.88;0.88;;;;;;;;;;5081889;28;20223;-72
2023/01/03 02:24:23;;;;;;;0.60;0.60;;;;;;;;;;5081855;28;20288;-71
2023/01/03 02:26:53;;;;;;;2.28;0.80;;;;;;;;;;5068944;28;20413;-72
2023/01/03 02:29:53;;;;;;;0.63;0.63;;;;;;;;;;5081594;28;20407;-72
2023/01/03 02:32:23;;;;;;;0.70;0.70;;;;;;;;;;5081751;28;20376;-72
2023/01/03 02:34:56;;;;;;;1.52;0.88;;;;;;;;;;5081821;28;20404;-71
2023/01/03 02:37:28;;;;;;;1.02;1.02;;;;;;;;;;5081766;28;20519;-71
2023/01/03 02:39:58;;;;;;;0.80;0.80;;;;;;;;;;5081683;28;20223;-71
2023/01/03 02:45:14;;;;;;;1.13;1.00;;;;;;;;;;5077925;28;20230;-71
2023/01/03 02:47:44;;;;;;;1.08;0.95;;;;;;;;;;5081549;28;20199;-72
2023/01/03 02:50:12;;;;;;;2.25;1.00;;;;;;;;;;5081189;28;20200;-71
2023/01/03 02:52:39;;;;;;;1.52;0.90;;;;;;;;;;5081722;28;20204;-72
2023/01/03 02:55:08;;;;;;;2.33;0.93;;;;;;;;;;5081423;28;20196;-72
2023/01/03 02:57:36;;;;;;;0.75;0.75;;;;;;;;;;5081552;28;20196;-72
2023/01/03 03:00:07;;;;;;;0.90;0.77;;;;;;;;;;5081190;28;20441;-72
2023/01/03 03:02:34;;;;;;;1.33;0.90;;;;;;;;;;5081412;28;20267;-72
2023/01/03 03:05:05;;;;;;;0.80;0.80;;;;;;;;;;5081671;28;20201;-72
2023/01/03 03:07:33;;;;;;;0.90;0.90;;;;;;;;;;5081509;28;20504;-72
2023/01/03 03:15:32;;;;;;;1.00;0.90;;;;;;;;;;5081290;28;20196;-72
2023/01/03 03:18:01;;;;;;;0.77;0.77;;;;;;;;;;5081321;28;20202;-72
2023/01/03 03:26:01;;;;;;;0.80;0.80;;;;;;;;;;5084787;28;20562;-72
2023/01/03 03:28:34;;;;;;;5.05;0.70;;;;;;;;;;5084539;28;20548;-72
2023/01/03 03:31:02;;;;;;;0.73;0.70;;;;;;;;;;5084769;28;20188;-72
2023/01/03 03:33:30;;;;;;;0.50;0.43;;;;;;;;;;5084703;28;20422;-72
2023/01/03 03:36:00;;;;;;;2.47;0.80;;;;;;;;;;5084537;28;20419;-72
2023/01/03 03:38:28;;;;;;;2.38;0.60;;;;;;;;;;5084583;28;20223;-72
2023/01/03 03:46:32;;;;;;;1.33;0.75;;;;;;;;;;5084480;28;20200;-72
2023/01/03 03:51:47;;;;;;;0.93;0.60;;;;;;;;;;5084397;28;20419;-72
2023/01/03 03:54:16;;;;;;;0.73;0.70;;;;;;;;;;5084501;28;20196;-72
2023/01/03 03:56:45;;;;;;;0.40;0.40;;;;;;;;;;5084280;28;20219;-72
2023/01/03 03:59:11;;;;;;;0.57;0.57;;;;;;;;;;5083975;28;20207;-72
2023/01/03 04:01:38;;;;;;;0.93;0.50;;;;;;;;;;5084293;28;20216;-72
2023/01/03 04:04:07;;;;;;;0.85;0.60;;;;;;;;;;5084239;28;20196;-72
2023/01/03 04:06:35;;;;;;;0.55;0.55;;;;;;;;;;5084256;28;20512;-72
2023/01/03 04:09:03;;;;;;;1.55;0.68;;;;;;;;;;5083822;28;20203;-72
2023/01/03 04:11:29;;;;;;;0.65;0.65;;;;;;;;;;5084160;28;20192;-72
2023/01/03 04:13:55;;;;;;;0.73;0.73;;;;;;;;;;5084171;28;20196;-72
2023/01/03 04:16:22;;;;;;;1.33;0.45;;;;;;;;;;5084009;28;20203;-72
2023/01/03 04:18:48;;;;;;;1.25;0.65;;;;;;;;;;5083722;28;20196;-72
2023/01/03 04:21:14;;;;;;;0.60;0.60;;;;;;;;;;5083502;28;20224;-72
2023/01/03 04:23:40;;;;;;;1.58;0.77;;;;;;;;;;5083720;28;20207;-70
2023/01/03 04:26:08;;;;;;;1.08;0.70;;;;;;;;;;5083627;28;20519;-70
2023/01/03 04:28:34;;;;;;;3.05;1.00;;;;;;;;;;5083182;28;20441;-71
2023/01/03 04:31:00;;;;;;;2.53;1.00;;;;;;;;;;5083683;28;20207;-71
2023/01/03 04:33:27;;;;;;;1.00;0.88;;;;;;;;;;5083555;28;20203;-71
2023/01/03 04:35:53;;;;;;;1.85;1.20;;;;;;;;;;5082475;28;20203;-71
2023/01/03 04:38:19;;;;;;;0.77;0.77;;;;;;;;;;5083208;28;20557;-71
2023/01/03 04:40:45;;;;;;;0.85;0.70;;;;;;;;;;5083631;28;20224;-71
2023/01/03 04:46:08;;;;;;;0.57;0.57;;;;;;;;;;5041386;28;20232;-71
2023/01/03 04:48:35;;;;;;;0.70;0.70;;;;;;;;;;5072824;28;20203;-71
2023/01/03 04:51:01;;;;;;;0.65;0.45;;;;;;;;;;5083077;28;20200;-71
2023/01/03 04:53:27;;;;;;;2.55;0.60;;;;;;;;;;5083623;28;20203;-71
2023/01/03 04:55:55;;;;;;;0.95;0.55;;;;;;;;;;5083489;28;20207;-71
2023/01/03 04:58:23;;;;;;;0.65;0.65;;;;;;;;;;5082946;28;20243;-71
2023/01/03 05:00:49;;;;;;;0.45;0.45;;;;;;;;;;5082944;28;20249;-71
2023/01/03 05:03:15;;;;;;;0.50;0.50;;;;;;;;;;5082920;28;20197;-71
2023/01/03 05:05:42;;;;;;;0.93;0.50;;;;;;;;;;5083154;28;20504;-71
2023/01/03 05:08:09;;;;;;;0.68;0.68;;;;;;;;;;5082777;28;20499;-70
2023/01/03 05:10:37;;;;;;;0.70;0.70;;;;;;;;;;5082898;28;20208;-70
2023/01/03 05:13:03;;;;;;;1.48;0.63;;;;;;;;;;5082863;28;20266;-70
2023/01/03 05:15:34;;;;;;;0.80;0.80;;;;;;;;;;5082657;28;20204;-70
2023/01/03 05:18:00;;;;;;;0.75;0.75;;;;;;;;;;5082414;28;20504;-70
2023/01/03 05:25:56;;;;;;;3.70;0.68;;;;;;;;;;5082664;28;20194;-70
2023/01/03 05:28:22;;;;;;;1.17;0.88;;;;;;;;;;5082044;28;20216;-70
2023/01/03 05:30:50;;;;;;;0.80;0.80;;;;;;;;;;5082656;28;20192;-70
2023/01/03 05:33:16;;;;;;;1.95;0.68;;;;;;;;;;5082464;28;20204;-70
2023/01/03 05:35:45;;;;;;;0.80;0.80;;;;;;;;;;5082439;28;20486;-70
2023/01/03 05:38:11;;;;;;;5.22;0.82;;;;;;;;;;5082102;28;20196;-70
2023/01/03 05:40:37;;;;;;;4.60;0.90;;;;;;;;;;5082117;28;20220;-70
2023/01/03 05:43:03;;;;;;;2.45;1.15;;;;;;;;;;5082508;28;20279;-70
2023/01/03 05:45:30;;;;;;;1.63;1.10;;;;;;;;;;5082102;28;20196;-70
2023/01/03 05:47:58;;;;;;;0.95;0.75;;;;;;;;;;5082136;28;20403;-70
2023/01/03 05:50:24;;;;;;;3.47;0.80;;;;;;;;;;5082210;28;20368;-70
2023/01/03 05:52:50;;;;;;;1.95;0.90;;;;;;;;;;5082128;28;20196;-70
2023/01/03 05:55:16;;;;;;;2.40;1.00;;;;;;;;;;5082093;28;20204;-70
2023/01/03 05:57:43;;;;;;;0.90;0.90;;;;;;;;;;5081949;28;20196;-71
2023/01/03 06:00:10;;;;;;;0.80;0.77;;;;;;;;;;5082091;28;20203;-71
2023/01/03 06:02:36;;;;;;;1.10;0.80;;;;;;;;;;5081992;28;20216;-71
2023/01/03 06:05:04;;;;;;;2.20;0.98;;;;;;;;;;5082099;28;20196;-71
2023/01/03 06:07:32;;;;;;;1.17;1.10;;;;;;;;;;5081937;28;20212;-71
2023/01/03 06:09:59;;;;;;;1.20;1.20;;;;;;;;;;5081199;28;20432;-71
2023/01/03 06:12:25;;;;;;;1.30;1.20;;;;;;;;;;5081583;28;20197;-71
2023/01/03 06:14:52;;;;;;;1.17;1.17;;;;;;;;;;5081610;28;20371;-71
2023/01/03 06:20:02;;;;;;;2.22;1.48;;;;;;;;;;5081306;28;20243;-70
2023/01/03 06:22:29;;;;;;;2.13;1.00;;;;;;;;;;5081113;28;20215;-70
2023/01/03 06:24:55;;;;;;;1.27;1.27;;;;;;;;;;5081617;28;20200;-71
2023/01/03 06:27:22;;;;;;;2.10;1.10;;;;;;;;;;5081532;28;20235;-70
2023/01/03 06:29:48;;;;;;;1.02;1.02;;;;;;;;;;5081268;28;20428;-70
2023/01/03 06:32:14;;;;;;;1.52;1.20;;;;;;;;;;5081500;28;20193;-70
2023/01/03 06:34:40;;;;;;;3.70;1.25;;;;;;;;;;5081348;28;20242;-70
2023/01/03 06:37:07;;;;;;;3.90;1.30;;;;;;;;;;5081235;28;20215;-70
2023/01/03 06:39:35;;;;;;;1.58;1.20;;;;;;;;;;5080980;28;20204;-70
2023/01/03 06:42:38;;;;;;;1.10;1.10;;;;;;;;;;5081285;28;20220;-70
2023/01/03 06:53:10;;;;;;;1.10;1.10;;;;;;;;;;5080966;28;20262;-70
2023/01/03 06:53:11;;;;;;;1.15;1.10;;;;;;;;;;5081278;28;20203;-70
2023/01/03 06:55:39;;;;;;;5.57;1.60;;;;;;;;;;5081579;28;20196;-71
2023/01/03 06:58:05;;;;;;;1.85;1.27;;;;;;;;;;5080972;28;20205;-71
2023/01/03 07:00:32;;;;;;;1.40;1.30;;;;;;;;;;5084748;28;20205;-71
2023/01/03 07:02:58;;;;;;;1.52;1.42;;;;;;;;;;5085223;28;20224;-71
2023/01/03 07:05:24;;;;;;;1.88;1.77;;;;;;;;;;5085083;28;20423;-71
2023/01/03 07:07:51;;;;;;;1.65;1.55;;;;;;;;;;5085368;28;20203;-70
2023/01/03 07:10:17;;;;;;;1.35;1.35;;;;;;;;;;5066710;28;20204;-71
2023/01/03 07:15:28;;;;;;;2.53;1.70;;;;;;;;;;5079713;28;20318;-60
2023/01/03 07:17:55;;;;;;;1.60;1.50;;;;;;;;;;5079573;28;20212;-60
2023/01/03 07:20:21;;;;;;;1.23;1.00;;;;;;;;;;5079207;28;20208;-60
2023/01/03 07:22:47;;;;;;;1.30;1.20;;;;;;;;;;5076895;28;20555;-60
2023/01/03 07:25:13;;;;;;;1.50;1.40;;;;;;;;;;5075328;28;20289;-61
2023/01/03 07:27:40;;;;;;;1.15;1.15;;;;;;;;;;5074163;28;20443;-60
2023/01/03 07:30:08;;;;;;;0.95;0.93;;;;;;;;;;5077391;28;20204;-60
2023/01/03 07:32:34;;;;;;;1.63;1.30;;;;;;;;;;5078410;28;20212;-60
2023/01/03 07:35:01;;;;;;;1.55;1.42;;;;;;;;;;5074814;28;20234;-60
2023/01/03 07:37:27;;;;;;;1.75;1.50;;;;;;;;;;5077721;28;20208;-61
2023/01/03 07:39:53;;;;;;;2.13;1.90;;;;;;;;;;5076825;28;20213;-62
2023/01/03 07:45:04;;;;;;;1.45;1.45;;;;;;;;;;5066782;28;20208;-61
2023/01/03 07:47:31;;;;;;;1.58;1.48;;;;;;;;;;5078323;28;20219;-60
2023/01/03 07:49:57;;;;;;;2.17;2.08;;;;;;;;;;5077640;28;20219;-61
2023/01/03 07:52:24;;;;;;;2.10;2.00;;;;;;;;;;5077716;28;20239;-60
2023/01/03 07:54:50;;;;;;;1.48;1.45;;;;;;;;;;5077981;28;20210;-60
2023/01/03 07:57:16;;;;;;;2.85;1.85;;;;;;;;;;5077922;28;20546;-60
2023/01/03 07:59:42;;;;;;;3.35;1.75;;;;;;;;;;5077438;28;20546;-61
2023/01/03 08:02:09;;;;;;;1.80;1.70;;;;;;;;;;5078079;28;20574;-60
2023/01/03 08:04:36;;;;;;;1.52;1.35;;;;;;;;;;5078050;28;20528;-59
2023/01/03 08:07:02;;;;;;;2.63;1.60;;;;;;;;;;5077495;28;20462;-61
2023/01/03 08:15:02;;;;;;;1.55;1.45;;;;;;;;;;5077610;28;20295;-61
2023/01/03 08:17:28;;;;;;;2.10;1.90;;;;;;;;;;5077614;28;20350;-60
2023/01/03 08:19:55;;;;;;;2.65;2.05;;;;;;;;;;5077441;28;20254;-61
2023/01/03 08:22:22;;;;;;;2.75;2.55;;;;;;;;;;5076957;28;20228;-61
2023/01/03 08:24:48;;;;;;;2.65;2.42;;;;;;;;;;5076236;28;20531;-61
2023/01/03 08:27:14;;;;;;;3.13;2.80;;;;;;;;;;5077159;28;20435;-61
2023/01/03 08:29:41;;;;;;;2.78;2.60;;;;;;;;;;5077180;28;20212;-60
2023/01/03 08:32:07;;;;;;;3.00;2.80;;;;;;;;;;5078054;28;20401;-62
2023/01/03 08:34:35;;;;;;;5.47;2.42;;;;;;;;;;5077090;28;20212;-62
2023/01/03 08:37:06;;;;;;;2.70;2.50;;;;;;;;;;5076759;28;20536;-62
2023/01/03 08:39:33;;;;;;;3.08;2.80;;;;;;;;;;5076647;28;20608;-62
2023/01/03 08:42:02;;;;;;;3.40;2.40;;;;;;;;;;5076919;28;20237;-62
2023/01/03 08:44:28;;;;;;;2.88;2.67;;;;;;;;;;5077500;28;20216;-62
2023/01/03 08:46:56;;;;;;;3.28;3.00;;;;;;;;;;5077626;28;20445;-62
2023/01/03 08:49:22;;;;;;;5.25;3.20;;;;;;;;;;5076828;28;20219;-62
2023/01/03 08:51:49;;;;;;;5.90;3.40;;;;;;;;;;5077231;28;20215;-62
2023/01/03 08:54:16;;;;;;;10.13;3.38;;;;;;;;;;5077582;28;20266;-62
2023/01/03 08:56:42;;;;;;;3.40;3.10;;;;;;;;;;5078165;28;20216;-62
2023/01/03 08:59:09;;;;;;;8.88;3.47;;;;;;;;;;5076493;28;20220;-63
2023/01/03 09:01:35;;;;;;;5.28;3.30;;;;;;;;;;5079281;28;20229;-62
2023/01/03 09:04:03;;;;;;;4.65;3.78;;;;;;;;;;5076621;28;20219;-62
2023/01/03 09:06:30;;;;;;;5.30;3.83;;;;;;;;;;5076004;28;20208;-59
2023/01/03 09:08:56;;;;;;;5.50;3.33;;;;;;;;;;5075315;28;20418;-60
2023/01/03 09:11:24;;;;;;;3.30;3.00;;;;;;;;;;5075906;28;20447;-61
2023/01/03 09:13:50;;;;;;;6.03;3.67;;;;;;;;;;5077125;28;20219;-60
2023/01/03 09:16:16;;;;;;;5.35;4.85;;;;;;;;;;5077077;28;20204;-60
2023/01/03 09:18:43;;;;;;;6.45;4.90;;;;;;;;;;5076541;28;20223;-61
2023/01/03 09:21:09;;;;;;;7.00;5.30;;;;;;;;;;5076507;28;20212;-61
2023/01/03 09:23:36;;;;;;;7.63;6.82;;;;;;;;;;5075105;28;20239;-61
2023/01/03 09:26:02;;;;;;;9.45;8.18;;;;;;;;;;5076642;28;20551;-61
2023/01/03 09:28:30;;;;;;;10.48;7.80;;;;;;;;;;5074746;28;20427;-61
2023/01/03 09:30:56;;;;;;;11.88;7.80;;;;;;;;;;5075950;28;20212;-61
2023/01/03 09:33:23;;;;;;;11.35;7.80;;;;;;;;;;5076458;28;20204;-61
2023/01/03 09:35:51;;;;;;;11.63;8.30;;;;;;;;;;5076016;28;20411;-61
2023/01/03 09:38:17;;;;;;;12.55;7.80;;;;;;;;;;5075546;28;20212;-61
2023/01/03 09:40:45;;;;;;;12.68;8.80;;;;;;;;;;5075448;28;20219;-61
2023/01/03 09:43:13;;;;;;;20.92;10.95;;;;;;;;;;5076166;28;20566;-61
2023/01/03 09:45:43;;;;;;;17.92;11.05;;;;;;;;;;5076484;28;20212;-62
2023/01/03 09:48:13;;;;;;;45.80;23.27;;;;;;;;;;5076259;28;20208;-62
2023/01/03 09:50:39;;;;;;;55.72;26.38;;;;;;;;;;5075250;28;20204;-62
2023/01/03 10:04:24;;;;;;;14.15;7.57;;;;;;;;;;5075721;28;20277;-61
2023/01/03 10:06:56;;;;;;;12.55;7.15;;;;;;;;;;5076285;28;20239;-61
2023/01/03 10:09:27;;;;;;;7.32;6.65;;;;;;;;;;5075629;28;20216;-62
2023/01/03 10:12:01;;;;;;;12.45;6.88;;;;;;;;;;5075099;28;20204;-60
2023/01/03 10:14:34;;;;;;;10.15;5.85;;;;;;;;;;5073188;28;20235;-61
2023/01/03 10:17:07;;;;;;;4.95;4.13;;;;;;;;;;5075613;28;20218;-61
2023/01/03 10:19:40;;;;;;;8.57;4.65;;;;;;;;;;5075524;28;20224;-60
2023/01/03 10:22:08;;;;;;;5.40;4.07;;;;;;;;;;5075489;28;20547;-59
2023/01/03 10:24:40;;;;;;;3.53;3.03;;;;;;;;;;5074800;28;20212;-59
2023/01/03 10:27:08;;;;;;;3.13;3.03;;;;;;;;;;5075203;28;20215;-61
2023/01/03 10:29:35;;;;;;;4.07;3.17;;;;;;;;;;5074029;28;20219;-60
2023/01/03 10:32:12;;;;;;;3.10;2.65;;;;;;;;;;5075651;28;20222;-61
2023/01/03 10:34:39;;;;;;;1.90;1.90;;;;;;;;;;5076265;28;20283;-61
2023/01/03 10:37:15;;;;;;;3.75;2.42;;;;;;;;;;5078823;28;20212;-61
2023/01/03 10:39:41;;;;;;;2.63;2.40;;;;;;;;;;5073860;28;20216;-61
2023/01/03 10:42:07;;;;;;;2.28;2.17;;;;;;;;;;5077967;28;20243;-62
2023/01/03 10:44:34;;;;;;;2.83;2.63;;;;;;;;;;5077696;28;20533;-61
2023/01/03 10:47:08;;;;;;;4.40;2.53;;;;;;;;;;5077992;28;20527;-61
2023/01/03 10:49:35;;;;;;;2.90;2.70;;;;;;;;;;5077412;28;20223;-61
2023/01/03 10:52:02;;;;;;;2.10;1.92;;;;;;;;;;5077098;28;20208;-61
2023/01/03 10:54:31;;;;;;;2.95;2.20;;;;;;;;;;5076424;28;20212;-62
2023/01/03 10:56:57;;;;;;;2.10;2.00;;;;;;;;;;5078157;28;20212;-62
2023/01/03 10:59:25;;;;;;;2.67;2.05;;;;;;;;;;5077690;28;20215;-61
2023/01/03 11:02:01;;;;;;;4.38;2.50;;;;;;;;;;5078094;28;20223;-63
2023/01/03 11:04:27;;;;;;;4.72;2.40;;;;;;;;;;5077712;28;20530;-62
2023/01/03 11:07:03;;;;;;;2.83;2.25;;;;;;;;;;5077785;28;20215;-62
2023/01/03 11:09:33;;;;;;;2.97;2.78;;;;;;;;;;5074467;28;20507;-62
2023/01/03 11:12:02;;;;;;;2.95;2.70;;;;;;;;;;5077349;28;20586;-62
2023/01/03 11:14:29;;;;;;;2.50;2.40;;;;;;;;;;5076967;28;20227;-62
2023/01/03 11:16:57;;;;;;;3.42;2.63;;;;;;;;;;5078388;28;20308;-61
2023/01/03 11:19:25;;;;;;;2.65;2.40;;;;;;;;;;5077184;28;20534;-63
2023/01/03 11:21:54;;;;;;;2.55;2.35;;;;;;;;;;5078861;28;20220;-65
2023/01/03 11:24:30;;;;;;;2.72;2.35;;;;;;;;;;5079630;28;20231;-65
2023/01/03 11:27:01;;;;;;;3.45;2.25;;;;;;;;;;5079824;28;20218;-65
2023/01/03 11:29:36;;;;;;;4.18;2.78;;;;;;;;;;5079018;28;20581;-61
2023/01/03 11:32:11;;;;;;;3.08;2.80;;;;;;;;;;5078001;28;20223;-61
2023/01/03 11:34:42;;;;;;;2.63;2.42;;;;;;;;;;5077620;28;20207;-62
2023/01/03 11:37:11;;;;;;;2.42;2.33;;;;;;;;;;5072860;28;20250;-61
2023/01/03 11:39:49;;;;;;;2.97;2.13;;;;;;;;;;5077578;28;20216;-62
2023/01/03 11:42:24;;;;;;;2.55;2.35;;;;;;;;;;5078094;28;20212;-62
2023/01/03 11:44:57;;;;;;;5.30;2.35;;;;;;;;;;5077353;28;20546;-61
2023/01/03 11:47:30;;;;;;;2.60;2.20;;;;;;;;;;5077264;28;20219;-62
2023/01/03 11:50:01;;;;;;;1.80;1.77;;;;;;;;;;5077017;28;20220;-62
2023/01/03 11:52:29;;;;;;;2.83;2.35;;;;;;;;;;5077701;28;20425;-64
2023/01/03 11:55:08;;;;;;;2.13;2.03;;;;;;;;;;5077670;28;20516;-65
2023/01/03 11:57:37;;;;;;;3.00;1.88;;;;;;;;;;5077532;28;20215;-64
2023/01/03 12:00:08;;;;;;;3.22;1.90;;;;;;;;;;5076343;28;20528;-65
2023/01/03 12:02:48;;;;;;;3.45;2.13;;;;;;;;;;5077406;28;20236;-64
2023/01/03 12:05:26;;;;;;;4.57;1.77;;;;;;;;;;5077469;28;20219;-65
2023/01/03 12:07:54;;;;;;;1.90;1.52;;;;;;;;;;5067539;28;20211;-65
2023/01/03 12:10:25;;;;;;;1.20;1.20;;;;;;;;;;5077722;28;20200;-65
2023/01/03 12:13:00;;;;;;;1.52;1.20;;;;;;;;;;5077379;28;20227;-65
2023/01/03 12:15:28;;;;;;;1.25;1.15;;;;;;;;;;5076802;28;20463;-65
2023/01/03 12:17:57;;;;;;;2.63;1.50;;;;;;;;;;5078043;28;20212;-65
2023/01/03 12:20:24;;;;;;;1.90;1.35;;;;;;;;;;5076720;28;20213;-65
2023/01/03 12:22:53;;;;;;;2.15;1.38;;;;;;;;;;5077307;28;20224;-64
2023/01/03 12:25:23;;;;;;;1.30;1.20;;;;;;;;;;5076635;28;20523;-62
2023/01/03 12:27:53;;;;;;;3.22;2.70;;;;;;;;;;5076421;28;20220;-61
2023/01/03 12:30:26;;;;;;;2.70;0.98;;;;;;;;;;5075184;28;20246;-62
2023/01/03 12:32:55;;;;;;;0.80;0.80;;;;;;;;;;5076311;28;20439;-62
2023/01/03 12:35:28;;;;;;;1.10;1.00;;;;;;;;;;5076120;28;20234;-62
2023/01/03 12:37:54;;;;;;;1.05;0.68;;;;;;;;;;5076189;28;20388;-62
2023/01/03 12:40:24;;;;;;;0.70;0.70;;;;;;;;;;5075504;28;20219;-62
2023/01/03 12:42:57;;;;;;;1.73;0.77;;;;;;;;;;5075989;28;20236;-61
2023/01/03 12:45:28;;;;;;;1.23;0.70;;;;;;;;;;5077689;28;20226;-61
2023/01/03 12:47:58;;;;;;;1.10;1.00;;;;;;;;;;5077955;28;20625;-62
2023/01/03 12:50:28;;;;;;;1.85;0.90;;;;;;;;;;5077340;28;20212;-62
2023/01/03 12:52:57;;;;;;;4.63;0.70;;;;;;;;;;5076651;28;20209;-61
2023/01/03 12:55:26;;;;;;;0.60;0.60;;;;;;;;;;5076066;28;20216;-61
2023/01/03 12:58:02;;;;;;;1.35;0.90;;;;;;;;;;5074604;28;20278;-61
2023/01/03 13:00:38;;;;;;;1.02;0.80;;;;;;;;;;5075316;28;20215;-61
2023/01/03 13:03:06;;;;;;;1.55;0.77;;;;;;;;;;5075060;28;20462;-61
2023/01/03 13:05:36;;;;;;;0.90;0.90;;;;;;;;;;5075274;28;20528;-61
2023/01/03 13:08:06;;;;;;;0.90;0.90;;;;;;;;;;5074324;28;20204;-62
2023/01/03 13:10:34;;;;;;;3.63;1.30;;;;;;;;;;5075391;28;20235;-61
2023/01/03 13:13:02;;;;;;;3.20;1.02;;;;;;;;;;5076367;28;20250;-62
2023/01/03 13:15:29;;;;;;;1.50;1.23;;;;;;;;;;5075882;28;20539;-60
2023/01/03 13:17:55;;;;;;;1.40;0.93;;;;;;;;;;5076228;28;20215;-61
2023/01/03 13:20:26;;;;;;;0.85;0.85;;;;;;;;;;5074763;28;20212;-61
2023/01/03 13:22:53;;;;;;;2.67;0.90;;;;;;;;;;5075544;28;20558;-61
2023/01/03 13:25:31;;;;;;;3.97;1.30;;;;;;;;;;5075590;28;20239;-61
2023/01/03 13:27:58;;;;;;;0.85;0.85;;;;;;;;;;5075382;28;20255;-60
2023/01/03 13:30:27;;;;;;;3.15;0.93;;;;;;;;;;5075249;28;20219;-62
2023/01/03 13:32:54;;;;;;;0.80;0.80;;;;;;;;;;5075610;28;20215;-62
2023/01/03 13:35:31;;;;;;;2.92;1.48;;;;;;;;;;5076315;28;20581;-62
2023/01/03 13:38:00;;;;;;;1.58;1.25;;;;;;;;;;5076270;28;20223;-62
2023/01/03 13:40:29;;;;;;;1.05;1.00;;;;;;;;;;5076194;28;20211;-62
2023/01/03 13:43:10;;;;;;;0.90;0.90;;;;;;;;;;5074834;28;20239;-62
2023/01/03 13:45:54;;;;;;;3.20;1.00;;;;;;;;;;5075142;28;20581;-61
2023/01/03 13:48:41;;;;;;;0.70;0.70;;;;;;;;;;5075060;28;20212;-63
2023/01/03 13:51:28;;;;;;;4.32;0.82;;;;;;;;;;5075160;28;20219;-62
2023/01/03 13:53:57;;;;;;;6.70;1.30;;;;;;;;;;5074275;28;20581;-61
2023/01/03 13:56:24;;;;;;;1.25;0.90;;;;;;;;;;5075902;28;20212;-61
2023/01/03 13:58:52;;;;;;;2.67;0.95;;;;;;;;;;5075509;28;20212;-61
2023/01/03 14:01:25;;;;;;;0.95;0.80;;;;;;;;;;5074959;28;21121;-61
2023/01/03 14:04:04;;;;;;;1.75;1.02;;;;;;;;;;5075261;28;20235;-61
2023/01/03 14:06:51;;;;;;;0.80;0.80;;;;;;;;;;5074542;28;20280;-62
2023/01/03 14:09:28;;;;;;;3.92;1.00;;;;;;;;;;5073947;28;20216;-61
2023/01/03 14:12:02;;;;;;;1.65;0.95;;;;;;;;;;5074018;28;20220;-60
2023/01/03 14:14:30;;;;;;;0.93;0.93;;;;;;;;;;5074415;28;20376;-61
2023/01/03 14:16:57;;;;;;;1.00;0.80;;;;;;;;;;5074891;28;20219;-61
2023/01/03 14:19:27;;;;;;;1.10;0.95;;;;;;;;;;5074364;28;20220;-61
2023/01/03 14:21:57;;;;;;;1.00;1.00;;;;;;;;;;5074599;28;20419;-60
2023/01/03 14:24:25;;;;;;;0.93;0.93;;;;;;;;;;5074781;28;20235;-60
2023/01/03 14:26:51;;;;;;;2.25;0.80;;;;;;;;;;5074781;28;20216;-60
2023/01/03 14:29:19;;;;;;;3.35;1.00;;;;;;;;;;5074104;28;20227;-60
2023/01/03 14:31:46;;;;;;;1.40;0.88;;;;;;;;;;5074258;28;20309;-60
2023/01/03 14:34:24;;;;;;;1.40;0.80;;;;;;;;;;5077144;28;20212;-63
2023/01/03 14:36:52;;;;;;;1.27;0.95;;;;;;;;;;5078135;28;20415;-64
2023/01/03 14:39:30;;;;;;;1.33;0.80;;;;;;;;;;5076403;28;20216;-63
2023/01/03 14:41:57;;;;;;;4.57;1.40;;;;;;;;;;5077210;28;20212;-63
2023/01/03 14:44:23;;;;;;;3.17;1.75;;;;;;;;;;5075090;28;20228;-60
2023/01/03 14:46:51;;;;;;;7.30;4.60;;;;;;;;;;5075583;28;20208;-60
2023/01/03 14:49:19;;;;;;;5.10;3.58;;;;;;;;;;5074427;28;20309;-61
2023/01/03 14:51:46;;;;;;;2.60;2.40;;;;;;;;;;5074962;28;20500;-61
2023/01/03 14:54:16;;;;;;;3.88;2.15;;;;;;;;;;5074354;28;20216;-60
2023/01/03 14:56:44;;;;;;;4.07;2.20;;;;;;;;;;5074258;28;20220;-60
2023/01/03 14:59:10;;;;;;;3.17;2.13;;;;;;;;;;5074537;28;20213;-62
2023/01/03 15:01:37;;;;;;;2.80;1.95;;;;;;;;;;5075638;28;20212;-65
2023/01/03 15:04:04;;;;;;;2.13;1.92;;;;;;;;;;5075403;28;20254;-65
2023/01/03 15:06:31;;;;;;;1.80;1.70;;;;;;;;;;5074756;28;20304;-61
2023/01/03 15:08:58;;;;;;;2.20;1.27;;;;;;;;;;5073476;28;20279;-61
2023/01/03 15:11:32;;;;;;;1.08;0.90;;;;;;;;;;5074082;28;20212;-61
2023/01/03 15:14:01;;;;;;;3.20;0.82;;;;;;;;;;5074535;28;20208;-61
2023/01/03 15:16:30;;;;;;;2.15;1.00;;;;;;;;;;5074926;28;20262;-61
2023/01/03 15:19:06;;;;;;;1.27;0.90;;;;;;;;;;5074307;28;20295;-61
2023/01/03 15:21:32;;;;;;;2.40;1.23;;;;;;;;;;5077363;28;21151;-61
2023/01/03 15:23:59;;;;;;;2.60;1.30;;;;;;;;;;5078940;28;20228;-61
2023/01/03 15:26:26;;;;;;;1.42;1.10;;;;;;;;;;5077985;28;20311;-61
2023/01/03 15:28:54;;;;;;;3.08;1.38;;;;;;;;;;5077287;28;20235;-60
2023/01/03 15:31:28;;;;;;;2.97;1.30;;;;;;;;;;5077373;28;20213;-60
2023/01/03 15:34:02;;;;;;;1.75;1.58;;;;;;;;;;5078113;28;20561;-60
2023/01/03 15:36:29;;;;;;;3.70;2.28;;;;;;;;;;5078374;28;20216;-60
2023/01/03 15:38:56;;;;;;;2.80;1.60;;;;;;;;;;5076774;28;20216;-61
2023/01/03 15:44:06;;;;;;;1.23;1.13;;;;;;;;;;5077875;28;20228;-62
2023/01/03 15:46:32;;;;;;;1.98;1.40;;;;;;;;;;5078302;28;20212;-62
2023/01/03 15:48:58;;;;;;;2.60;1.30;;;;;;;;;;5077957;28;20223;-61
2023/01/03 15:51:24;;;;;;;1.35;1.20;;;;;;;;;;5078548;28;20547;-60
2023/01/03 15:53:51;;;;;;;1.58;1.00;;;;;;;;;;5077836;28;20394;-61
2023/01/03 15:56:18;;;;;;;2.28;1.48;;;;;;;;;;5077859;28;20457;-61
2023/01/03 15:58:45;;;;;;;2.00;1.85;;;;;;;;;;5076638;28;20274;-61